Balde, Argentina
Current Conditions -  °F | °C
As of 5:00 PM on Sunday 23 Nov 2014 (Local Time) from SAME Reporting Station
Few Clouds Few Clouds  
Wind Chill: 95°   Ceiling: Unl
Heat Index: 95°   Visibility: 6mi
Dew Point: 39°   Wind: 8mph
Humidity: 14%   Direction: 20°NNE
Pressure: 29.53"   Gusts: NA
Location:  33.33°S, 66.63°W
Report Text: SAME 232000Z 02007KT 9999 FEW045TCU 35/04 Q1000
Loading
Personal Weather Stations






























Interactive Weather Map New forecast layout! Learn more

10-Day Weather Forecast

Advertisements
Track Severe Weather on mobile